createdAt,value
2023-05-22T00:02:10.521Z,26.27
2023-05-22T00:04:37.809Z,30.55
2023-05-22T00:07:06.820Z,27.35
2023-05-22T00:09:33.898Z,34.30
2023-05-22T00:12:01.274Z,32.88
2023-05-22T00:14:28.438Z,25.38
2023-05-22T00:16:56.492Z,27.33
2023-05-22T00:19:24.104Z,27.77
2023-05-22T00:21:51.632Z,27.00
2023-05-22T00:24:18.908Z,26.20
2023-05-22T00:26:46.200Z,25.45
2023-05-22T00:29:13.251Z,27.67
2023-05-22T00:31:40.541Z,24.58
2023-05-22T00:34:07.745Z,27.52
2023-05-22T00:36:35.046Z,27.98
2023-05-22T00:39:02.136Z,22.20
2023-05-22T00:41:29.204Z,19.77
2023-05-22T00:43:56.280Z,21.70
2023-05-22T00:46:27.602Z,19.25
2023-05-22T00:48:54.835Z,21.05
2023-05-22T00:51:25.110Z,21.83
2023-05-22T00:53:52.260Z,22.00
2023-05-22T00:56:19.737Z,20.05
2023-05-22T00:58:47.275Z,24.30
2023-05-22T01:01:14.428Z,20.50
2023-05-22T01:03:45.270Z,18.30
2023-05-22T01:06:16.244Z,21.45
2023-05-22T01:08:43.552Z,20.42
2023-05-22T01:11:16.915Z,19.20
2023-05-22T01:13:55.380Z,21.42
2023-05-22T01:16:30.145Z,17.65
2023-05-22T01:18:57.398Z,21.08
2023-05-22T01:22:02.862Z,21.65
2023-05-22T01:25:12.193Z,19.75
2023-05-22T01:28:03.364Z,18.88
2023-05-22T01:30:51.071Z,20.85
2023-05-22T01:33:18.870Z,17.80
2023-05-22T01:35:48.253Z,21.92
2023-05-22T01:38:15.956Z,16.52
2023-05-22T01:40:44.276Z,18.58
2023-05-22T01:43:11.484Z,18.10
2023-05-22T01:45:38.814Z,22.58
2023-05-22T01:48:06.190Z,17.92
2023-05-22T01:50:33.410Z,16.80
2023-05-22T01:53:20.279Z,18.33
2023-05-22T01:55:56.707Z,17.05
2023-05-22T01:58:41.566Z,18.45
2023-05-22T02:01:09.321Z,17.83
2023-05-22T02:03:36.555Z,18.55
2023-05-22T02:06:06.495Z,35.50
2023-05-22T02:08:34.475Z,20.02
2023-05-22T02:11:01.567Z,17.40
2023-05-22T02:13:28.767Z,14.45
2023-05-22T02:15:56.580Z,18.70
2023-05-22T02:18:31.263Z,16.10
2023-05-22T02:20:59.543Z,18.08
2023-05-22T02:23:29.490Z,25.50
2023-05-22T02:25:56.801Z,20.45
2023-05-22T02:28:24.271Z,17.38
2023-05-22T02:30:51.482Z,21.00
2023-05-22T02:33:18.784Z,20.00
2023-05-22T02:35:46.103Z,19.02
2023-05-22T02:38:16.582Z,17.55
2023-05-22T02:40:43.695Z,19.42
2023-05-22T02:43:11.054Z,22.77
2023-05-22T02:45:38.185Z,16.95
2023-05-22T02:48:05.801Z,18.45
2023-05-22T02:50:33.124Z,17.38
2023-05-22T02:53:00.164Z,21.85
2023-05-22T02:55:27.317Z,16.70
2023-05-22T02:57:54.574Z,21.58
2023-05-22T03:00:22.790Z,21.48
2023-05-22T03:02:50.010Z,23.92
2023-05-22T03:05:17.976Z,20.80
2023-05-22T03:07:48.293Z,19.48
2023-05-22T03:10:15.848Z,19.33
2023-05-22T03:12:43.104Z,19.10
2023-05-22T03:15:11.244Z,18.80
2023-05-22T03:17:38.505Z,20.52
2023-05-22T03:20:07.390Z,19.92
2023-05-22T03:22:34.488Z,20.98
2023-05-22T03:25:01.940Z,15.18
2023-05-22T03:27:29.085Z,16.60
2023-05-22T03:29:56.276Z,19.88
2023-05-22T03:32:23.712Z,20.42
2023-05-22T03:34:51.028Z,19.48
2023-05-22T03:37:18.208Z,15.65
2023-05-22T03:39:45.570Z,16.50
2023-05-22T03:42:13.721Z,13.93
2023-05-22T03:44:40.870Z,17.17
2023-05-22T03:47:08.139Z,15.85
2023-05-22T03:49:39.047Z,18.52
2023-05-22T03:52:10.191Z,16.52
2023-05-22T03:54:43.096Z,20.80
2023-05-22T03:57:10.613Z,15.65
2023-05-22T03:59:38.136Z,14.93
2023-05-22T04:02:05.672Z,19.25
2023-05-22T04:04:38.898Z,15.95
2023-05-22T04:07:08.539Z,13.32
2023-05-22T04:09:36.437Z,14.75
2023-05-22T04:12:03.930Z,18.00
2023-05-22T04:14:34.276Z,17.70
2023-05-22T04:17:05.055Z,17.52
2023-05-22T04:22:05.411Z,12.52
2023-05-22T04:24:33.157Z,14.68
2023-05-22T04:27:00.673Z,17.38
2023-05-22T04:29:28.782Z,14.88
2023-05-22T04:31:55.889Z,15.52
2023-05-22T04:34:25.080Z,17.77
2023-05-22T04:36:56.302Z,15.48
2023-05-22T04:39:26.456Z,13.25
2023-05-22T04:41:53.561Z,17.15
2023-05-22T04:44:23.153Z,14.13
2023-05-22T04:46:56.557Z,18.27
2023-05-22T04:49:24.982Z,17.40
2023-05-22T04:51:54.288Z,17.08
2023-05-22T04:54:21.680Z,12.65
2023-05-22T04:56:48.867Z,17.58
2023-05-22T04:59:16.992Z,18.15
2023-05-22T05:01:48.022Z,20.23
2023-05-22T05:04:15.353Z,15.50
2023-05-22T05:06:43.386Z,17.45
2023-05-22T05:09:10.498Z,16.42
2023-05-22T05:11:37.579Z,18.00
2023-05-22T05:14:04.724Z,15.00
2023-05-22T05:16:31.878Z,23.13
2023-05-22T05:19:00.382Z,16.42
2023-05-22T05:21:28.162Z,22.40
2023-05-22T05:23:55.318Z,19.50
2023-05-22T05:26:24.152Z,19.52
2023-05-22T05:28:51.673Z,18.25
2023-05-22T05:31:22.897Z,17.95
2023-05-22T05:33:50.685Z,21.17
2023-05-22T05:36:17.832Z,18.70
2023-05-22T05:38:44.970Z,17.67
2023-05-22T05:41:12.134Z,19.40
2023-05-22T05:43:39.308Z,24.50
2023-05-22T05:46:06.561Z,18.80
2023-05-22T05:48:33.839Z,19.95
2023-05-22T05:51:01.025Z,24.75
2023-05-22T05:53:29.303Z,19.90
2023-05-22T05:55:57.618Z,18.73
2023-05-22T05:58:27.496Z,15.75
2023-05-22T06:00:54.550Z,21.75
2023-05-22T06:03:22.284Z,20.77
2023-05-22T06:05:50.063Z,22.38
2023-05-22T06:08:17.152Z,19.95
2023-05-22T06:10:47.600Z,20.52
2023-05-22T06:13:14.962Z,26.38
2023-05-22T06:15:42.320Z,20.63
2023-05-22T06:18:09.484Z,19.27
2023-05-22T06:20:37.018Z,24.27
2023-05-22T06:23:07.054Z,22.67
2023-05-22T06:25:34.690Z,22.77
2023-05-22T06:28:02.243Z,28.23
2023-05-22T06:30:39.540Z,31.90
2023-05-22T06:33:25.482Z,28.10
2023-05-22T06:35:54.286Z,27.92
2023-05-22T06:38:22.110Z,30.38
2023-05-22T06:40:49.468Z,28.13
2023-05-22T06:43:19.081Z,24.85
2023-05-22T06:45:46.357Z,24.83
2023-05-22T06:48:13.523Z,27.50
2023-05-22T06:50:41.041Z,33.45
2023-05-22T06:53:08.507Z,23.60
2023-05-22T06:55:35.702Z,28.40
2023-05-22T06:58:03.366Z,26.05
2023-05-22T07:00:30.773Z,27.58
2023-05-22T07:02:57.930Z,26.98
2023-05-22T07:05:26.174Z,26.88
2023-05-22T07:07:53.339Z,22.90
2023-05-22T07:10:20.974Z,27.25
2023-05-22T07:12:48.194Z,23.40
2023-05-22T07:15:16.528Z,22.63
2023-05-22T07:17:43.766Z,21.25
2023-05-22T07:20:12.326Z,22.75
2023-05-22T07:25:51.139Z,28.17
2023-05-22T07:28:18.443Z,21.67
2023-05-22T07:30:45.767Z,22.27
2023-05-22T07:33:14.276Z,19.33
2023-05-22T07:35:41.680Z,19.38
2023-05-22T07:38:29.169Z,16.95
2023-05-22T07:40:58.924Z,24.17
2023-05-22T07:43:26.283Z,17.73
2023-05-22T07:45:54.448Z,13.80
2023-05-22T07:48:25.095Z,12.20
2023-05-22T07:53:19.678Z,8.15
2023-05-22T07:55:47.116Z,10.88
2023-05-22T07:58:14.869Z,16.23
2023-05-22T08:00:44.123Z,10.32
2023-05-22T08:03:12.518Z,11.10
2023-05-22T08:05:42.308Z,10.88
2023-05-22T08:08:10.804Z,8.47
2023-05-22T08:11:01.882Z,13.27
2023-05-22T08:13:28.317Z,13.05
2023-05-22T08:16:00.535Z,12.93
2023-05-22T08:18:29.824Z,10.43
2023-05-22T08:20:57.605Z,8.18
2023-05-22T08:23:24.824Z,9.50
2023-05-22T08:25:52.072Z,10.07
2023-05-22T08:28:19.319Z,10.38
2023-05-22T08:30:46.566Z,11.60
2023-05-22T08:33:13.962Z,8.52
2023-05-22T08:35:41.278Z,8.80
2023-05-22T08:38:23.987Z,10.52
2023-05-22T08:40:51.253Z,13.07
2023-05-22T08:43:30.983Z,10.15
2023-05-22T08:46:06.251Z,11.10
2023-05-22T08:48:33.876Z,10.25
2023-05-22T08:51:13.085Z,11.57
2023-05-22T08:53:41.028Z,9.07
2023-05-22T08:56:10.604Z,12.02
2023-05-22T08:58:38.346Z,8.23
2023-05-22T09:01:10.175Z,10.93
2023-05-22T09:03:49.086Z,14.13
2023-05-22T09:06:39.336Z,12.27
2023-05-22T09:09:29.825Z,9.80
2023-05-22T09:11:57.626Z,8.63
2023-05-22T09:14:25.753Z,10.85
2023-05-22T09:16:58.189Z,15.05
2023-05-22T09:19:25.865Z,11.80
2023-05-22T09:22:00.580Z,8.73
2023-05-22T09:25:05.237Z,10.10
2023-05-22T09:30:19.360Z,12.25
2023-05-22T09:32:50.370Z,9.98
2023-05-22T09:35:27.994Z,9.07
2023-05-22T09:37:57.028Z,9.98
2023-05-22T09:40:26.165Z,10.18
2023-05-22T09:42:54.089Z,9.50
2023-05-22T09:45:24.620Z,9.77
2023-05-22T09:47:52.166Z,6.47
2023-05-22T09:50:21.082Z,11.80
2023-05-22T09:52:48.457Z,7.03
2023-05-22T09:55:17.661Z,10.55
2023-05-22T09:57:45.748Z,8.35
2023-05-22T10:00:18.616Z,10.20
2023-05-22T10:08:29.971Z,9.82
2023-05-22T10:11:01.585Z,11.98
2023-05-22T10:19:07.685Z,10.55
2023-05-22T10:24:15.183Z,7.45
2023-05-22T10:29:39.426Z,11.35
2023-05-22T10:32:21.031Z,13.75
2023-05-22T10:47:26.933Z,7.47
2023-05-22T10:50:13.662Z,8.70
2023-05-22T10:52:41.542Z,7.88
2023-05-22T10:55:09.899Z,7.88
2023-05-22T10:57:40.325Z,8.77
2023-05-22T11:00:16.359Z,12.27
2023-05-22T11:02:45.517Z,12.32
2023-05-22T11:05:36.913Z,9.65
2023-05-22T11:39:43.949Z,11.35
2023-05-22T11:42:13.674Z,8.50
2023-05-22T11:44:41.331Z,6.60
2023-05-22T11:47:10.699Z,10.60
2023-05-22T11:49:42.640Z,10.77
2023-05-22T11:57:37.339Z,15.38
2023-05-22T12:00:06.633Z,7.97
2023-05-22T12:02:35.516Z,9.15
2023-05-22T12:05:02.892Z,6.22
2023-05-22T12:07:31.212Z,7.30
2023-05-22T12:09:58.740Z,10.88
2023-05-22T12:12:28.285Z,8.65
2023-05-22T12:14:55.841Z,8.45
2023-05-22T12:17:23.252Z,12.45
2023-05-22T12:19:50.364Z,10.00
2023-05-22T12:22:17.756Z,11.93
2023-05-22T12:24:48.552Z,10.50
2023-05-22T12:27:15.795Z,8.40
2023-05-22T12:29:43.419Z,9.75
2023-05-22T12:32:12.049Z,9.48
2023-05-22T12:34:46.689Z,13.18
2023-05-22T12:37:25.451Z,7.07
2023-05-22T12:39:59.675Z,8.40
2023-05-22T12:42:27.293Z,7.72
2023-05-22T12:44:55.239Z,11.90
2023-05-22T12:47:23.243Z,9.40
2023-05-22T12:49:51.166Z,12.10
2023-05-22T12:52:18.528Z,10.68
2023-05-22T12:54:46.275Z,11.18
2023-05-22T12:57:13.488Z,12.20
2023-05-22T12:59:44.309Z,10.35
2023-05-22T13:02:11.682Z,11.00
2023-05-22T13:04:38.900Z,9.60
2023-05-22T13:07:06.387Z,13.20
2023-05-22T13:09:33.653Z,8.38
2023-05-22T13:12:01.101Z,10.15
2023-05-22T13:14:28.286Z,9.82
2023-05-22T13:16:55.636Z,9.95
2023-05-22T13:19:23.005Z,9.02
2023-05-22T13:21:50.297Z,11.15
2023-05-22T13:24:17.832Z,9.40
2023-05-22T13:26:45.016Z,9.50
2023-05-22T13:29:12.438Z,10.27
2023-05-22T13:31:44.577Z,11.75
2023-05-22T13:34:11.727Z,10.02
2023-05-22T13:36:45.049Z,8.02
2023-05-22T13:39:12.583Z,8.07
2023-05-22T13:44:29.050Z,7.93
2023-05-22T13:46:56.347Z,10.27
2023-05-22T13:49:24.630Z,7.80
2023-05-22T13:51:52.066Z,6.57
2023-05-22T13:54:19.222Z,7.93
2023-05-22T13:56:46.635Z,16.13
2023-05-22T13:59:15.082Z,10.05
2023-05-22T14:01:42.380Z,8.77
2023-05-22T14:04:09.479Z,9.50
2023-05-22T14:06:36.828Z,7.80
2023-05-22T14:09:07.279Z,8.68
2023-05-22T14:11:35.088Z,13.15
2023-05-22T14:16:39.633Z,10.60
2023-05-22T14:19:11.589Z,8.55
2023-05-22T14:27:33.138Z,7.20
2023-05-22T14:30:00.766Z,9.98
2023-05-22T14:32:34.481Z,8.45
2023-05-22T14:40:44.101Z,9.80
2023-05-22T14:49:33.556Z,8.05
2023-05-22T14:52:01.086Z,8.07
2023-05-22T14:54:28.243Z,8.85
2023-05-22T14:56:55.561Z,7.07
2023-05-22T14:59:22.659Z,8.57
2023-05-22T15:01:51.734Z,11.32
2023-05-22T15:04:18.900Z,12.00
2023-05-22T15:06:46.314Z,8.27
2023-05-22T15:12:15.073Z,11.02
2023-05-22T15:14:42.223Z,8.25
2023-05-22T15:17:09.686Z,8.30
2023-05-22T15:19:36.910Z,13.35
2023-05-22T15:22:18.324Z,13.05
2023-05-22T15:25:08.135Z,8.38
2023-05-22T15:27:35.880Z,8.32
2023-05-22T15:30:03.782Z,9.77
2023-05-22T15:32:32.789Z,9.95
2023-05-22T15:35:00.001Z,8.80
2023-05-22T15:37:28.593Z,12.30
2023-05-22T15:39:57.121Z,10.90
2023-05-22T15:42:24.776Z,10.50
2023-05-22T15:44:52.063Z,8.20
2023-05-22T15:47:19.170Z,8.10
2023-05-22T15:49:46.356Z,9.70
2023-05-22T15:52:13.489Z,9.27
2023-05-22T15:54:40.586Z,7.45
2023-05-22T15:57:07.852Z,10.75
2023-05-22T15:59:35.050Z,11.25
2023-05-22T16:02:02.159Z,8.27
2023-05-22T16:04:31.018Z,8.88
2023-05-22T16:06:59.182Z,5.78
2023-05-22T16:09:26.254Z,7.63
2023-05-22T16:11:53.398Z,9.40
2023-05-22T16:14:20.635Z,6.05
2023-05-22T16:16:47.955Z,7.30
2023-05-22T16:19:15.115Z,7.15
2023-05-22T16:21:42.326Z,13.77
2023-05-22T16:24:12.865Z,9.32
2023-05-22T16:29:09.029Z,9.82
2023-05-22T16:31:36.477Z,8.70
2023-05-22T16:34:04.554Z,7.72
2023-05-22T16:36:31.794Z,10.25
2023-05-22T16:39:00.258Z,11.07
2023-05-22T16:41:31.519Z,10.25
2023-05-22T16:43:58.932Z,9.20
2023-05-22T16:46:28.038Z,11.07
2023-05-22T16:48:55.446Z,10.15
2023-05-22T16:51:22.790Z,10.07
2023-05-22T16:53:50.748Z,10.30
2023-05-22T16:56:21.908Z,10.73
2023-05-22T16:58:49.378Z,10.30
2023-05-22T17:01:17.761Z,9.35
2023-05-22T17:03:46.244Z,10.23
2023-05-22T17:06:13.761Z,11.38
2023-05-22T17:08:41.114Z,8.93
2023-05-22T17:11:09.332Z,10.73
2023-05-22T17:13:36.702Z,7.97
2023-05-22T17:16:04.141Z,13.85
2023-05-22T17:18:32.293Z,14.75
2023-05-22T17:21:00.829Z,17.75
2023-05-22T17:23:28.242Z,16.73
2023-05-22T17:25:56.072Z,18.95
2023-05-22T17:28:23.635Z,27.60
2023-05-22T17:30:51.108Z,19.55
2023-05-22T17:33:18.920Z,18.95
2023-05-22T17:35:48.016Z,23.73
2023-05-22T17:38:15.630Z,21.17
2023-05-22T17:40:45.604Z,20.98
2023-05-22T17:43:16.360Z,17.50
2023-05-22T17:45:50.202Z,11.85
2023-05-22T17:48:26.338Z,11.85
2023-05-22T17:50:54.288Z,12.93
2023-05-22T17:53:21.690Z,13.75
2023-05-22T17:55:50.336Z,13.20
2023-05-22T17:58:20.743Z,12.88
2023-05-22T18:00:49.192Z,17.35
2023-05-22T18:03:20.839Z,14.32
2023-05-22T18:05:49.742Z,9.02
2023-05-22T18:08:18.047Z,11.25
2023-05-22T18:10:45.767Z,14.73
2023-05-22T18:13:13.145Z,9.75
2023-05-22T18:15:40.985Z,9.40
2023-05-22T18:18:10.615Z,11.93
2023-05-22T18:20:39.929Z,9.20
2023-05-22T18:23:07.391Z,9.13
2023-05-22T18:25:34.719Z,12.40
2023-05-22T18:28:03.187Z,10.77
2023-05-22T18:30:30.656Z,13.10
2023-05-22T18:32:57.891Z,10.30
2023-05-22T18:35:25.098Z,12.23
2023-05-22T18:37:52.428Z,12.38
2023-05-22T18:40:19.885Z,13.15
2023-05-22T18:42:47.107Z,17.10
2023-05-22T18:45:14.559Z,14.75
2023-05-22T18:47:41.973Z,17.55
2023-05-22T18:50:09.457Z,17.52
2023-05-22T18:52:39.996Z,13.10
2023-05-22T18:57:37.236Z,13.45
2023-05-22T19:00:05.648Z,14.50
2023-05-22T19:02:34.507Z,13.82
2023-05-22T19:05:02.417Z,14.55
2023-05-22T19:07:31.654Z,19.15
2023-05-22T19:09:58.874Z,14.30
2023-05-22T19:12:28.707Z,14.18
2023-05-22T19:15:18.045Z,12.30
2023-05-22T19:17:45.798Z,11.80
2023-05-22T19:20:13.257Z,12.20
2023-05-22T19:22:40.694Z,17.08
2023-05-22T19:25:08.321Z,20.75
2023-05-22T19:27:37.294Z,17.80
2023-05-22T19:30:07.473Z,20.35
2023-05-22T19:32:35.370Z,17.60
2023-05-22T19:35:02.865Z,18.40
2023-05-22T19:37:29.924Z,18.50
2023-05-22T19:39:57.010Z,15.85
2023-05-22T19:42:24.139Z,16.30
2023-05-22T19:44:51.436Z,16.55
2023-05-22T19:47:18.604Z,13.80
2023-05-22T19:49:45.832Z,14.77
2023-05-22T19:52:13.092Z,17.63
2023-05-22T19:54:40.628Z,16.55
2023-05-22T19:57:07.718Z,24.30
2023-05-22T19:59:36.661Z,17.00
2023-05-22T20:02:04.292Z,15.13
2023-05-22T20:04:31.871Z,13.60
2023-05-22T20:06:59.622Z,14.90
2023-05-22T20:09:27.165Z,15.85
2023-05-22T20:11:54.825Z,11.85
2023-05-22T20:14:25.385Z,20.20
2023-05-22T20:19:24.892Z,14.85
2023-05-22T20:21:52.810Z,16.35
2023-05-22T20:24:25.386Z,20.35
2023-05-22T20:26:53.228Z,20.60
2023-05-22T20:29:20.650Z,15.68
2023-05-22T20:31:50.807Z,14.00
2023-05-22T20:34:18.743Z,14.95
2023-05-22T20:36:46.978Z,14.65
2023-05-22T20:39:14.097Z,14.50
2023-05-22T20:41:41.351Z,15.55
2023-05-22T20:44:08.722Z,14.40
2023-05-22T20:46:36.078Z,15.23
2023-05-22T20:49:05.024Z,13.27
2023-05-22T20:51:33.056Z,18.38
2023-05-22T20:54:00.752Z,13.32
2023-05-22T20:56:28.421Z,16.35
2023-05-22T20:58:56.828Z,16.17
2023-05-22T21:01:25.151Z,16.15
2023-05-22T21:03:54.751Z,14.07
2023-05-22T21:06:22.538Z,15.23
2023-05-22T21:08:51.923Z,15.20
2023-05-22T21:11:21.201Z,18.85
2023-05-22T21:13:48.503Z,16.75
2023-05-22T21:16:17.104Z,17.20
2023-05-22T21:18:44.829Z,15.30
2023-05-22T21:21:12.218Z,16.02
2023-05-22T21:23:39.580Z,18.80
2023-05-22T21:26:06.785Z,16.58
2023-05-22T21:28:34.212Z,16.77
2023-05-22T21:31:01.471Z,16.25
2023-05-22T21:33:28.715Z,16.00
2023-05-22T21:35:56.263Z,18.55
2023-05-22T21:38:23.399Z,16.48
2023-05-22T21:40:50.578Z,14.10
2023-05-22T21:43:17.719Z,19.45
2023-05-22T21:45:44.941Z,19.45
2023-05-22T21:48:12.379Z,16.77
2023-05-22T21:50:39.843Z,13.70
2023-05-22T21:53:07.186Z,14.57
2023-05-22T21:55:36.195Z,17.38
2023-05-22T21:58:03.460Z,16.58
2023-05-22T22:00:30.691Z,17.35
2023-05-22T22:02:58.319Z,19.25
2023-05-22T22:05:27.695Z,19.98
2023-05-22T22:07:54.856Z,14.00
2023-05-22T22:10:22.515Z,18.27
2023-05-22T22:12:49.828Z,19.48
2023-05-22T22:15:17.456Z,14.70
2023-05-22T22:17:44.715Z,18.70
2023-05-22T22:20:12.421Z,15.18
2023-05-22T22:22:40.685Z,16.25
2023-05-22T22:25:08.474Z,14.63
2023-05-22T22:27:37.070Z,15.95
2023-05-22T22:30:05.039Z,26.92
2023-05-22T22:32:32.532Z,15.15
2023-05-22T22:34:59.694Z,17.50
2023-05-22T22:37:26.755Z,20.15
2023-05-22T22:39:53.844Z,15.38
2023-05-22T22:42:21.094Z,14.02
2023-05-22T22:44:48.489Z,15.82
2023-05-22T22:47:15.668Z,14.30
2023-05-22T22:49:42.869Z,14.52
2023-05-22T22:52:10.342Z,15.13
2023-05-22T22:54:37.616Z,14.88
2023-05-22T22:57:04.871Z,14.93
2023-05-22T22:59:32.138Z,15.15
2023-05-22T23:01:59.457Z,15.75
2023-05-22T23:04:28.498Z,16.98
2023-05-22T23:06:57.756Z,18.80
2023-05-22T23:09:25.141Z,15.48
2023-05-22T23:11:52.320Z,12.82
2023-05-22T23:14:20.527Z,19.80
2023-05-22T23:16:47.728Z,12.00
2023-05-22T23:19:17.277Z,15.20
2023-05-22T23:21:44.736Z,14.77
2023-05-22T23:24:11.913Z,14.40
2023-05-22T23:26:42.165Z,15.80
2023-05-22T23:29:09.254Z,15.60
2023-05-22T23:31:36.829Z,15.13
2023-05-22T23:34:04.058Z,12.98
2023-05-22T23:36:31.542Z,13.18
2023-05-22T23:39:01.749Z,16.33
2023-05-22T23:41:29.047Z,16.10
2023-05-22T23:43:56.601Z,14.55
2023-05-22T23:46:24.721Z,14.00
2023-05-22T23:48:51.990Z,12.48
2023-05-22T23:51:19.092Z,14.55
2023-05-22T23:53:46.502Z,13.45
2023-05-22T23:56:13.605Z,14.25
2023-05-22T23:58:40.926Z,13.70
